sensor_id;sensor_type;location;lat;lon;timestamp;pressure;altitude;pressure_sealevel;temperature;humidity
16194;BME280;8204;53.582;10.080;2022-12-29T00:01:29;98314.63;;;9.92;100.00
16194;BME280;8204;53.582;10.080;2022-12-29T00:03:59;98332.25;;;10.03;100.00
16194;BME280;8204;53.582;10.080;2022-12-29T00:06:28;98334.50;;;9.99;100.00
16194;BME280;8204;53.582;10.080;2022-12-29T00:08:57;98328.47;;;9.99;100.00
16194;BME280;8204;53.582;10.080;2022-12-29T00:11:29;98336.44;;;10.10;100.00
16194;BME280;8204;53.582;10.080;2022-12-29T00:13:58;98343.69;;;10.08;100.00
16194;BME280;8204;53.582;10.080;2022-12-29T00:16:41;98338.84;;;10.12;100.00
16194;BME280;8204;53.582;10.080;2022-12-29T00:19:11;98345.25;;;10.16;100.00
16194;BME280;8204;53.582;10.080;2022-12-29T00:21:52;98348.00;;;10.20;100.00
16194;BME280;8204;53.582;10.080;2022-12-29T00:24:33;98345.38;;;10.20;100.00
16194;BME280;8204;53.582;10.080;2022-12-29T00:27:17;98355.06;;;10.20;100.00
16194;BME280;8204;53.582;10.080;2022-12-29T00:29:58;98359.91;;;10.23;100.00
16194;BME280;8204;53.582;10.080;2022-12-29T00:32:40;98366.69;;;10.24;100.00
16194;BME280;8204;53.582;10.080;2022-12-29T00:35:25;98354.66;;;10.23;100.00
16194;BME280;8204;53.582;10.080;2022-12-29T00:37:58;98348.06;;;10.14;100.00
16194;BME280;8204;53.582;10.080;2022-12-29T00:40:42;98341.63;;;10.17;100.00
16194;BME280;8204;53.582;10.080;2022-12-29T00:43:27;98342.59;;;10.22;100.00
16194;BME280;8204;53.582;10.080;2022-12-29T00:46:09;98349.56;;;10.28;100.00
16194;BME280;8204;53.582;10.080;2022-12-29T00:48:37;98356.22;;;10.24;100.00
16194;BME280;8204;53.582;10.080;2022-12-29T00:51:19;98352.34;;;10.33;100.00
16194;BME280;8204;53.582;10.080;2022-12-29T00:53:48;98358.84;;;10.24;100.00
16194;BME280;8204;53.582;10.080;2022-12-29T00:56:17;98346.69;;;10.36;100.00
16194;BME280;8204;53.582;10.080;2022-12-29T00:58:48;98359.94;;;10.41;100.00
16194;BME280;8204;53.582;10.080;2022-12-29T01:01:17;98379.69;;;10.37;100.00
16194;BME280;8204;53.582;10.080;2022-12-29T01:03:46;98387.06;;;10.46;100.00
16194;BME280;8204;53.582;10.080;2022-12-29T01:06:14;98383.72;;;10.39;100.00
16194;BME280;8204;53.582;10.080;2022-12-29T01:08:44;98373.53;;;10.49;100.00
16194;BME280;8204;53.582;10.080;2022-12-29T01:11:33;98378.38;;;10.52;100.00
16194;BME280;8204;53.582;10.080;2022-12-29T01:14:03;98380.75;;;10.54;100.00
16194;BME280;8204;53.582;10.080;2022-12-29T01:16:32;98393.84;;;10.54;100.00
16194;BME280;8204;53.582;10.080;2022-12-29T01:19:02;98371.81;;;10.61;100.00
16194;BME280;8204;53.582;10.080;2022-12-29T01:21:32;98377.88;;;10.62;100.00
16194;BME280;8204;53.582;10.080;2022-12-29T01:24:01;98389.28;;;10.67;100.00
16194;BME280;8204;53.582;10.080;2022-12-29T01:26:30;98380.84;;;10.65;100.00
16194;BME280;8204;53.582;10.080;2022-12-29T01:29:03;98385.88;;;10.67;100.00
16194;BME280;8204;53.582;10.080;2022-12-29T01:31:36;98387.03;;;10.71;100.00
16194;BME280;8204;53.582;10.080;2022-12-29T01:34:05;98387.41;;;10.74;100.00
16194;BME280;8204;53.582;10.080;2022-12-29T01:36:34;98372.28;;;10.76;100.00
16194;BME280;8204;53.582;10.080;2022-12-29T01:39:03;98374.09;;;10.76;100.00
16194;BME280;8204;53.582;10.080;2022-12-29T01:41:32;98367.25;;;10.75;100.00
16194;BME280;8204;53.582;10.080;2022-12-29T01:47:02;98351.97;;;10.72;100.00
16194;BME280;8204;53.582;10.080;2022-12-29T01:49:31;98349.50;;;10.77;100.00
16194;BME280;8204;53.582;10.080;2022-12-29T01:52:04;98335.53;;;10.65;100.00
16194;BME280;8204;53.582;10.080;2022-12-29T01:54:37;98320.25;;;10.62;100.00
16194;BME280;8204;53.582;10.080;2022-12-29T01:57:10;98296.47;;;10.63;100.00
16194;BME280;8204;53.582;10.080;2022-12-29T01:59:46;98281.13;;;10.67;100.00
16194;BME280;8204;53.582;10.080;2022-12-29T02:02:19;98279.66;;;10.71;100.00
16194;BME280;8204;53.582;10.080;2022-12-29T02:04:50;98259.16;;;10.68;100.00
16194;BME280;8204;53.582;10.080;2022-12-29T02:07:22;98253.03;;;10.74;100.00
16194;BME280;8204;53.582;10.080;2022-12-29T02:09:54;98263.00;;;10.65;100.00
16194;BME280;8204;53.582;10.080;2022-12-29T02:12:24;98250.69;;;10.66;100.00
16194;BME280;8204;53.582;10.080;2022-12-29T02:14:57;98236.13;;;10.70;100.00
16194;BME280;8204;53.582;10.080;2022-12-29T02:20:47;98237.97;;;10.69;100.00
16194;BME280;8204;53.582;10.080;2022-12-29T02:23:49;98226.38;;;10.77;100.00
16194;BME280;8204;53.582;10.080;2022-12-29T02:26:43;98214.81;;;10.66;100.00
16194;BME280;8204;53.582;10.080;2022-12-29T02:29:33;98225.53;;;10.65;100.00
16194;BME280;8204;53.582;10.080;2022-12-29T02:32:11;98203.69;;;10.71;100.00
16194;BME280;8204;53.582;10.080;2022-12-29T02:34:49;98215.00;;;10.71;100.00
16194;BME280;8204;53.582;10.080;2022-12-29T02:37:26;98192.66;;;10.69;100.00
16194;BME280;8204;53.582;10.080;2022-12-29T02:40:04;98201.91;;;10.71;100.00
16194;BME280;8204;53.582;10.080;2022-12-29T02:42:36;98199.03;;;10.73;100.00
16194;BME280;8204;53.582;10.080;2022-12-29T02:45:15;98199.28;;;10.71;100.00
16194;BME280;8204;53.582;10.080;2022-12-29T02:47:56;98190.34;;;10.61;100.00
16194;BME280;8204;53.582;10.080;2022-12-29T02:50:33;98195.06;;;10.70;100.00
16194;BME280;8204;53.582;10.080;2022-12-29T02:53:05;98192.13;;;10.78;100.00
16194;BME280;8204;53.582;10.080;2022-12-29T02:55:36;98193.50;;;10.81;100.00
16194;BME280;8204;53.582;10.080;2022-12-29T02:58:16;98206.72;;;10.86;100.00
16194;BME280;8204;53.582;10.080;2022-12-29T03:01:00;98206.16;;;10.84;100.00
16194;BME280;8204;53.582;10.080;2022-12-29T03:03:47;98211.84;;;10.81;100.00
16194;BME280;8204;53.582;10.080;2022-12-29T03:06:29;98208.94;;;10.89;100.00
16194;BME280;8204;53.582;10.080;2022-12-29T03:09:03;98218.81;;;10.87;100.00
16194;BME280;8204;53.582;10.080;2022-12-29T03:11:40;98219.59;;;10.87;100.00
16194;BME280;8204;53.582;10.080;2022-12-29T03:14:29;98221.78;;;10.90;100.00
16194;BME280;8204;53.582;10.080;2022-12-29T03:17:20;98215.97;;;10.88;100.00
16194;BME280;8204;53.582;10.080;2022-12-29T03:20:01;98212.09;;;10.90;100.00
16194;BME280;8204;53.582;10.080;2022-12-29T03:22:38;98202.09;;;10.88;100.00
16194;BME280;8204;53.582;10.080;2022-12-29T03:25:11;98189.34;;;10.91;100.00
16194;BME280;8204;53.582;10.080;2022-12-29T03:27:45;98206.19;;;10.95;100.00
16194;BME280;8204;53.582;10.080;2022-12-29T03:30:15;98204.13;;;10.86;100.00
16194;BME280;8204;53.582;10.080;2022-12-29T03:32:47;98182.56;;;10.84;100.00
16194;BME280;8204;53.582;10.080;2022-12-29T03:35:21;98166.84;;;10.84;100.00
16194;BME280;8204;53.582;10.080;2022-12-29T03:37:57;98172.16;;;10.95;100.00
16194;BME280;8204;53.582;10.080;2022-12-29T03:40:29;98169.75;;;10.93;100.00
16194;BME280;8204;53.582;10.080;2022-12-29T03:43:01;98196.25;;;10.86;100.00
16194;BME280;8204;53.582;10.080;2022-12-29T03:45:30;98198.56;;;10.93;100.00
16194;BME280;8204;53.582;10.080;2022-12-29T03:47:59;98205.31;;;11.01;100.00
16194;BME280;8204;53.582;10.080;2022-12-29T03:50:30;98224.66;;;11.00;100.00
16194;BME280;8204;53.582;10.080;2022-12-29T03:52:59;98211.81;;;10.98;100.00
16194;BME280;8204;53.582;10.080;2022-12-29T03:55:28;98204.97;;;10.97;100.00
16194;BME280;8204;53.582;10.080;2022-12-29T03:57:57;98218.28;;;10.96;100.00
16194;BME280;8204;53.582;10.080;2022-12-29T04:00:26;98207.75;;;10.85;100.00
16194;BME280;8204;53.582;10.080;2022-12-29T04:02:56;98202.50;;;10.85;100.00
16194;BME280;8204;53.582;10.080;2022-12-29T04:05:25;98192.16;;;10.89;100.00
16194;BME280;8204;53.582;10.080;2022-12-29T04:07:57;98185.69;;;10.92;100.00
16194;BME280;8204;53.582;10.080;2022-12-29T04:10:27;98185.16;;;11.01;100.00
16194;BME280;8204;53.582;10.080;2022-12-29T04:12:55;98203.34;;;10.96;100.00
16194;BME280;8204;53.582;10.080;2022-12-29T04:15:24;98194.59;;;11.02;100.00
16194;BME280;8204;53.582;10.080;2022-12-29T04:17:53;98200.56;;;11.09;100.00
16194;BME280;8204;53.582;10.080;2022-12-29T04:20:22;98215.56;;;11.02;100.00
16194;BME280;8204;53.582;10.080;2022-12-29T04:23:06;98218.09;;;11.09;100.00
16194;BME280;8204;53.582;10.080;2022-12-29T04:25:35;98212.88;;;11.09;100.00
16194;BME280;8204;53.582;10.080;2022-12-29T04:28:04;98215.72;;;11.07;100.00
16194;BME280;8204;53.582;10.080;2022-12-29T04:30:34;98215.78;;;11.01;100.00
16194;BME280;8204;53.582;10.080;2022-12-29T04:33:04;98193.94;;;11.07;100.00
16194;BME280;8204;53.582;10.080;2022-12-29T04:35:33;98184.72;;;11.04;100.00
16194;BME280;8204;53.582;10.080;2022-12-29T04:38:02;98179.75;;;11.14;100.00
16194;BME280;8204;53.582;10.080;2022-12-29T04:40:33;98164.44;;;11.11;100.00
16194;BME280;8204;53.582;10.080;2022-12-29T04:43:02;98170.81;;;11.15;100.00
16194;BME280;8204;53.582;10.080;2022-12-29T04:45:31;98175.81;;;11.05;100.00
16194;BME280;8204;53.582;10.080;2022-12-29T04:47:59;98168.91;;;11.11;100.00
16194;BME280;8204;53.582;10.080;2022-12-29T04:50:28;98161.25;;;11.09;100.00
16194;BME280;8204;53.582;10.080;2022-12-29T04:52:57;98169.66;;;11.00;100.00
16194;BME280;8204;53.582;10.080;2022-12-29T04:55:28;98159.31;;;11.05;100.00
16194;BME280;8204;53.582;10.080;2022-12-29T04:57:59;98156.00;;;11.09;100.00
16194;BME280;8204;53.582;10.080;2022-12-29T05:00:28;98142.53;;;11.06;100.00
16194;BME280;8204;53.582;10.080;2022-12-29T05:02:57;98137.88;;;11.08;100.00
16194;BME280;8204;53.582;10.080;2022-12-29T05:05:26;98134.13;;;11.04;100.00
16194;BME280;8204;53.582;10.080;2022-12-29T05:07:56;98113.63;;;11.12;100.00
16194;BME280;8204;53.582;10.080;2022-12-29T05:10:25;98104.63;;;11.20;100.00
16194;BME280;8204;53.582;10.080;2022-12-29T05:12:54;98118.41;;;11.15;100.00
16194;BME280;8204;53.582;10.080;2022-12-29T05:15:26;98101.22;;;11.19;100.00
16194;BME280;8204;53.582;10.080;2022-12-29T05:17:55;98097.69;;;11.25;100.00
16194;BME280;8204;53.582;10.080;2022-12-29T05:20:24;98095.75;;;11.21;100.00
16194;BME280;8204;53.582;10.080;2022-12-29T05:22:54;98075.78;;;11.08;100.00
16194;BME280;8204;53.582;10.080;2022-12-29T05:25:23;98040.59;;;11.16;100.00
16194;BME280;8204;53.582;10.080;2022-12-29T05:27:52;98043.34;;;11.21;100.00
16194;BME280;8204;53.582;10.080;2022-12-29T05:30:20;98034.53;;;11.15;100.00
16194;BME280;8204;53.582;10.080;2022-12-29T05:32:52;98020.41;;;11.16;100.00
16194;BME280;8204;53.582;10.080;2022-12-29T05:35:20;98008.69;;;11.19;100.00
16194;BME280;8204;53.582;10.080;2022-12-29T05:37:49;97992.50;;;11.22;100.00
16194;BME280;8204;53.582;10.080;2022-12-29T05:40:18;97992.03;;;11.25;100.00
16194;BME280;8204;53.582;10.080;2022-12-29T05:42:48;97975.19;;;11.21;100.00
16194;BME280;8204;53.582;10.080;2022-12-29T05:45:17;97973.59;;;11.20;100.00
16194;BME280;8204;53.582;10.080;2022-12-29T05:47:46;97979.66;;;11.20;100.00
16194;BME280;8204;53.582;10.080;2022-12-29T05:50:17;97979.31;;;11.17;100.00
16194;BME280;8204;53.582;10.080;2022-12-29T05:52:46;97951.72;;;11.14;100.00
16194;BME280;8204;53.582;10.080;2022-12-29T05:55:15;97948.63;;;11.17;100.00
16194;BME280;8204;53.582;10.080;2022-12-29T05:57:45;97966.63;;;11.25;100.00
16194;BME280;8204;53.582;10.080;2022-12-29T06:00:15;97964.94;;;11.31;100.00
16194;BME280;8204;53.582;10.080;2022-12-29T06:02:44;97980.78;;;11.24;100.00
16194;BME280;8204;53.582;10.080;2022-12-29T06:05:17;97989.66;;;11.23;100.00
16194;BME280;8204;53.582;10.080;2022-12-29T06:07:45;97990.81;;;11.27;100.00
16194;BME280;8204;53.582;10.080;2022-12-29T06:10:14;98008.34;;;11.38;100.00
16194;BME280;8204;53.582;10.080;2022-12-29T06:12:43;98039.22;;;11.48;100.00
16194;BME280;8204;53.582;10.080;2022-12-29T06:15:12;98039.91;;;11.32;100.00
16194;BME280;8204;53.582;10.080;2022-12-29T06:17:41;98073.53;;;11.35;100.00
16194;BME280;8204;53.582;10.080;2022-12-29T06:20:10;98074.69;;;11.50;100.00
16194;BME280;8204;53.582;10.080;2022-12-29T06:22:41;98073.44;;;11.53;100.00
16194;BME280;8204;53.582;10.080;2022-12-29T06:25:11;98090.69;;;11.60;100.00
16194;BME280;8204;53.582;10.080;2022-12-29T06:27:40;98085.53;;;11.65;100.00
16194;BME280;8204;53.582;10.080;2022-12-29T06:30:10;98091.03;;;11.64;100.00
16194;BME280;8204;53.582;10.080;2022-12-29T06:32:40;98077.78;;;11.59;100.00
16194;BME280;8204;53.582;10.080;2022-12-29T06:35:09;98088.59;;;11.62;100.00
16194;BME280;8204;53.582;10.080;2022-12-29T06:37:38;98074.72;;;11.62;100.00
16194;BME280;8204;53.582;10.080;2022-12-29T06:40:11;98069.00;;;11.64;100.00
16194;BME280;8204;53.582;10.080;2022-12-29T06:42:40;98070.59;;;11.65;100.00
16194;BME280;8204;53.582;10.080;2022-12-29T06:45:10;98070.81;;;11.64;100.00
16194;BME280;8204;53.582;10.080;2022-12-29T06:47:39;98067.84;;;11.72;100.00
16194;BME280;8204;53.582;10.080;2022-12-29T06:50:08;98082.56;;;11.73;100.00
16194;BME280;8204;53.582;10.080;2022-12-29T06:52:37;98065.44;;;11.70;100.00
16194;BME280;8204;53.582;10.080;2022-12-29T06:55:10;98069.13;;;11.69;100.00
16194;BME280;8204;53.582;10.080;2022-12-29T06:57:39;98079.94;;;11.73;100.00
16194;BME280;8204;53.582;10.080;2022-12-29T07:00:09;98105.03;;;11.69;100.00
16194;BME280;8204;53.582;10.080;2022-12-29T07:02:38;98121.09;;;11.72;100.00
16194;BME280;8204;53.582;10.080;2022-12-29T07:05:08;98126.59;;;11.71;100.00
16194;BME280;8204;53.582;10.080;2022-12-29T07:07:37;98147.69;;;11.76;100.00
16194;BME280;8204;53.582;10.080;2022-12-29T07:10:09;98161.94;;;11.68;100.00
16194;BME280;8204;53.582;10.080;2022-12-29T07:12:40;98150.88;;;11.78;100.00
16194;BME280;8204;53.582;10.080;2022-12-29T07:15:10;98162.97;;;11.79;100.00
16194;BME280;8204;53.582;10.080;2022-12-29T07:17:39;98160.34;;;11.79;100.00
16194;BME280;8204;53.582;10.080;2022-12-29T07:20:09;98157.72;;;11.79;100.00
16194;BME280;8204;53.582;10.080;2022-12-29T07:22:38;98166.72;;;11.83;100.00
16194;BME280;8204;53.582;10.080;2022-12-29T07:25:10;98181.91;;;11.81;100.00
16194;BME280;8204;53.582;10.080;2022-12-29T07:27:39;98189.09;;;11.85;100.00
16194;BME280;8204;53.582;10.080;2022-12-29T07:30:09;98195.94;;;11.86;100.00
16194;BME280;8204;53.582;10.080;2022-12-29T07:32:40;98214.06;;;11.88;100.00
16194;BME280;8204;53.582;10.080;2022-12-29T07:35:09;98205.19;;;11.89;100.00
16194;BME280;8204;53.582;10.080;2022-12-29T07:37:39;98197.06;;;11.90;100.00
16194;BME280;8204;53.582;10.080;2022-12-29T07:40:11;98190.34;;;11.83;100.00
16194;BME280;8204;53.582;10.080;2022-12-29T07:42:40;98202.19;;;11.85;100.00
16194;BME280;8204;53.582;10.080;2022-12-29T07:45:09;98197.63;;;11.81;100.00
16194;BME280;8204;53.582;10.080;2022-12-29T07:47:38;98178.25;;;11.82;100.00
16194;BME280;8204;53.582;10.080;2022-12-29T07:50:07;98152.00;;;11.82;100.00
16194;BME280;8204;53.582;10.080;2022-12-29T07:52:38;98151.91;;;11.65;100.00
16194;BME280;8204;53.582;10.080;2022-12-29T07:55:07;98137.31;;;11.58;100.00
16194;BME280;8204;53.582;10.080;2022-12-29T07:57:39;98101.84;;;11.56;100.00
16194;BME280;8204;53.582;10.080;2022-12-29T08:00:10;98116.91;;;11.60;100.00
16194;BME280;8204;53.582;10.080;2022-12-29T08:02:39;98093.75;;;11.57;100.00
16194;BME280;8204;53.582;10.080;2022-12-29T08:05:09;98102.28;;;11.53;100.00
16194;BME280;8204;53.582;10.080;2022-12-29T08:07:39;98117.78;;;11.54;100.00
16194;BME280;8204;53.582;10.080;2022-12-29T08:10:08;98135.78;;;11.39;100.00
16194;BME280;8204;53.582;10.080;2022-12-29T08:12:40;98126.31;;;11.38;100.00
16194;BME280;8204;53.582;10.080;2022-12-29T08:15:11;98129.63;;;11.45;100.00
16194;BME280;8204;53.582;10.080;2022-12-29T08:17:40;98154.94;;;11.40;100.00
16194;BME280;8204;53.582;10.080;2022-12-29T08:20:09;98142.75;;;11.45;100.00
16194;BME280;8204;53.582;10.080;2022-12-29T08:22:39;98152.88;;;11.30;100.00
16194;BME280;8204;53.582;10.080;2022-12-29T08:25:09;98125.31;;;11.39;100.00
16194;BME280;8204;53.582;10.080;2022-12-29T08:27:41;98133.16;;;11.39;100.00
16194;BME280;8204;53.582;10.080;2022-12-29T08:30:11;98145.47;;;11.39;100.00
16194;BME280;8204;53.582;10.080;2022-12-29T08:32:40;98142.63;;;11.40;100.00
16194;BME280;8204;53.582;10.080;2022-12-29T08:35:09;98148.78;;;11.46;100.00
16194;BME280;8204;53.582;10.080;2022-12-29T08:37:38;98155.03;;;11.33;100.00
16194;BME280;8204;53.582;10.080;2022-12-29T08:40:08;98145.38;;;11.45;100.00
16194;BME280;8204;53.582;10.080;2022-12-29T08:42:37;98169.69;;;11.52;100.00
16194;BME280;8204;53.582;10.080;2022-12-29T08:45:10;98175.50;;;11.54;100.00
16194;BME280;8204;53.582;10.080;2022-12-29T08:47:39;98181.59;;;11.48;100.00
16194;BME280;8204;53.582;10.080;2022-12-29T08:50:08;98189.88;;;11.63;100.00
16194;BME280;8204;53.582;10.080;2022-12-29T08:52:37;98212.91;;;11.61;100.00
16194;BME280;8204;53.582;10.080;2022-12-29T08:55:08;98228.44;;;11.63;100.00
16194;BME280;8204;53.582;10.080;2022-12-29T08:57:37;98241.19;;;11.59;100.00
16194;BME280;8204;53.582;10.080;2022-12-29T09:00:11;98250.09;;;11.58;100.00
16194;BME280;8204;53.582;10.080;2022-12-29T09:02:40;98261.28;;;11.65;100.00
16194;BME280;8204;53.582;10.080;2022-12-29T09:05:09;98280.44;;;11.65;100.00
16194;BME280;8204;53.582;10.080;2022-12-29T09:07:39;98291.03;;;11.59;100.00
16194;BME280;8204;53.582;10.080;2022-12-29T09:10:09;98317.38;;;11.64;100.00
16194;BME280;8204;53.582;10.080;2022-12-29T09:12:38;98343.91;;;11.56;100.00
16194;BME280;8204;53.582;10.080;2022-12-29T09:15:10;98342.91;;;11.57;100.00
16194;BME280;8204;53.582;10.080;2022-12-29T09:17:39;98363.53;;;11.54;100.00
16194;BME280;8204;53.582;10.080;2022-12-29T09:20:12;98371.09;;;11.62;100.00
16194;BME280;8204;53.582;10.080;2022-12-29T09:22:43;98386.00;;;11.61;100.00
16194;BME280;8204;53.582;10.080;2022-12-29T09:25:12;98411.03;;;11.64;100.00
16194;BME280;8204;53.582;10.080;2022-12-29T09:27:41;98454.50;;;11.71;100.00
16194;BME280;8204;53.582;10.080;2022-12-29T09:30:13;98480.78;;;11.64;100.00
16194;BME280;8204;53.582;10.080;2022-12-29T09:32:42;98485.16;;;11.70;100.00
16194;BME280;8204;53.582;10.080;2022-12-29T09:35:12;98507.25;;;11.63;100.00
16194;BME280;8204;53.582;10.080;2022-12-29T09:37:42;98545.81;;;11.63;100.00
16194;BME280;8204;53.582;10.080;2022-12-29T09:40:24;98551.25;;;11.61;100.00
16194;BME280;8204;53.582;10.080;2022-12-29T09:43:09;98567.53;;;11.69;100.00
16194;BME280;8204;53.582;10.080;2022-12-29T09:45:45;98583.84;;;11.71;100.00
16194;BME280;8204;53.582;10.080;2022-12-29T09:48:19;98604.31;;;11.63;100.00
16194;BME280;8204;53.582;10.080;2022-12-29T09:50:52;98613.50;;;11.72;100.00
16194;BME280;8204;53.582;10.080;2022-12-29T09:53:27;98641.84;;;11.64;100.00
16194;BME280;8204;53.582;10.080;2022-12-29T09:56:00;98635.50;;;11.53;100.00
16194;BME280;8204;53.582;10.080;2022-12-29T09:58:34;98644.19;;;11.47;100.00
16194;BME280;8204;53.582;10.080;2022-12-29T10:01:07;98659.84;;;11.60;100.00
16194;BME280;8204;53.582;10.080;2022-12-29T10:03:45;98666.38;;;11.51;100.00
16194;BME280;8204;53.582;10.080;2022-12-29T10:06:21;98687.72;;;11.55;100.00
16194;BME280;8204;53.582;10.080;2022-12-29T10:08:57;98707.38;;;11.70;100.00
16194;BME280;8204;53.582;10.080;2022-12-29T10:11:39;98706.25;;;11.84;100.00
16194;BME280;8204;53.582;10.080;2022-12-29T10:14:29;98724.47;;;11.79;100.00
16194;BME280;8204;53.582;10.080;2022-12-29T10:17:08;98774.13;;;11.74;100.00
16194;BME280;8204;53.582;10.080;2022-12-29T10:19:52;98800.34;;;11.74;100.00
16194;BME280;8204;53.582;10.080;2022-12-29T10:22:34;98804.19;;;11.78;100.00
16194;BME280;8204;53.582;10.080;2022-12-29T10:25:12;98821.53;;;11.79;100.00
16194;BME280;8204;53.582;10.080;2022-12-29T10:27:44;98839.09;;;11.78;100.00
16194;BME280;8204;53.582;10.080;2022-12-29T10:30:17;98859.81;;;11.93;100.00
16194;BME280;8204;53.582;10.080;2022-12-29T10:32:51;98862.69;;;11.85;100.00
16194;BME280;8204;53.582;10.080;2022-12-29T10:35:23;98862.47;;;11.86;100.00
16194;BME280;8204;53.582;10.080;2022-12-29T10:37:56;98924.03;;;11.84;100.00
16194;BME280;8204;53.582;10.080;2022-12-29T10:40:31;98926.66;;;11.84;100.00
16194;BME280;8204;53.582;10.080;2022-12-29T10:43:07;98938.34;;;11.88;100.00
16194;BME280;8204;53.582;10.080;2022-12-29T10:45:41;98951.84;;;11.98;100.00
16194;BME280;8204;53.582;10.080;2022-12-29T10:48:19;98940.50;;;11.97;100.00
16194;BME280;8204;53.582;10.080;2022-12-29T10:50:50;98953.44;;;11.99;100.00
16194;BME280;8204;53.582;10.080;2022-12-29T10:53:22;98958.63;;;12.12;100.00
16194;BME280;8204;53.582;10.080;2022-12-29T10:55:53;98970.13;;;12.11;100.00
16194;BME280;8204;53.582;10.080;2022-12-29T10:58:22;98988.41;;;11.93;100.00
16194;BME280;8204;53.582;10.080;2022-12-29T11:00:52;98996.84;;;12.01;100.00
16194;BME280;8204;53.582;10.080;2022-12-29T11:03:45;99015.22;;;12.01;100.00
16194;BME280;8204;53.582;10.080;2022-12-29T11:06:21;99006.72;;;12.06;100.00
16194;BME280;8204;53.582;10.080;2022-12-29T11:08:55;99022.19;;;12.14;100.00
16194;BME280;8204;53.582;10.080;2022-12-29T11:11:27;99014.00;;;12.04;100.00
16194;BME280;8204;53.582;10.080;2022-12-29T11:13:58;99013.94;;;12.10;100.00
16194;BME280;8204;53.582;10.080;2022-12-29T11:16:29;99001.41;;;12.19;100.00
16194;BME280;8204;53.582;10.080;2022-12-29T11:19:04;99026.69;;;12.07;100.00
16194;BME280;8204;53.582;10.080;2022-12-29T11:21:35;99011.13;;;12.12;100.00
16194;BME280;8204;53.582;10.080;2022-12-29T11:24:19;99010.91;;;12.13;100.00
16194;BME280;8204;53.582;10.080;2022-12-29T11:26:50;99012.91;;;12.18;100.00
16194;BME280;8204;53.582;10.080;2022-12-29T11:29:25;99048.06;;;12.17;100.00
16194;BME280;8204;53.582;10.080;2022-12-29T11:31:56;99056.09;;;12.22;100.00
16194;BME280;8204;53.582;10.080;2022-12-29T11:34:31;99050.00;;;12.28;100.00
16194;BME280;8204;53.582;10.080;2022-12-29T11:37:03;99082.97;;;12.17;100.00
16194;BME280;8204;53.582;10.080;2022-12-29T11:39:37;99111.69;;;12.19;100.00
16194;BME280;8204;53.582;10.080;2022-12-29T11:42:15;99107.84;;;12.15;100.00
16194;BME280;8204;53.582;10.080;2022-12-29T11:44:46;99106.44;;;12.19;100.00
16194;BME280;8204;53.582;10.080;2022-12-29T11:47:29;99098.38;;;12.07;100.00
16194;BME280;8204;53.582;10.080;2022-12-29T11:50:05;99109.84;;;12.13;100.00
16194;BME280;8204;53.582;10.080;2022-12-29T11:52:36;99112.47;;;12.13;100.00
16194;BME280;8204;53.582;10.080;2022-12-29T11:55:17;99101.34;;;12.24;100.00
16194;BME280;8204;53.582;10.080;2022-12-29T11:57:47;99098.34;;;12.14;100.00
16194;BME280;8204;53.582;10.080;2022-12-29T12:00:20;99079.56;;;12.17;100.00
16194;BME280;8204;53.582;10.080;2022-12-29T12:02:56;99090.91;;;12.11;100.00
16194;BME280;8204;53.582;10.080;2022-12-29T12:05:41;99079.00;;;12.08;100.00
16194;BME280;8204;53.582;10.080;2022-12-29T12:08:20;99086.06;;;12.08;100.00
16194;BME280;8204;53.582;10.080;2022-12-29T12:10:53;99071.31;;;12.13;100.00
16194;BME280;8204;53.582;10.080;2022-12-29T12:13:29;99067.06;;;12.12;100.00
16194;BME280;8204;53.582;10.080;2022-12-29T12:16:03;99071.91;;;12.09;100.00
16194;BME280;8204;53.582;10.080;2022-12-29T12:18:39;99054.59;;;12.01;100.00
16194;BME280;8204;53.582;10.080;2022-12-29T12:21:16;99054.78;;;12.00;100.00
16194;BME280;8204;53.582;10.080;2022-12-29T12:24:04;99056.22;;;11.96;100.00
16194;BME280;8204;53.582;10.080;2022-12-29T12:26:42;99037.63;;;11.97;100.00
16194;BME280;8204;53.582;10.080;2022-12-29T12:29:16;99038.84;;;11.95;100.00
16194;BME280;8204;53.582;10.080;2022-12-29T12:31:53;99019.41;;;12.09;100.00
16194;BME280;8204;53.582;10.080;2022-12-29T12:34:27;99002.50;;;11.98;100.00
16194;BME280;8204;53.582;10.080;2022-12-29T12:40:02;98993.28;;;11.83;100.00
16194;BME280;8204;53.582;10.080;2022-12-29T12:42:47;98961.97;;;11.88;100.00
16194;BME280;8204;53.582;10.080;2022-12-29T12:45:38;98916.13;;;11.90;100.00
16194;BME280;8204;53.582;10.080;2022-12-29T12:48:24;98935.84;;;12.06;100.00
16194;BME280;8204;53.582;10.080;2022-12-29T12:51:03;98970.44;;;11.96;100.00
16194;BME280;8204;53.582;10.080;2022-12-29T12:54:01;98973.06;;;11.96;100.00
16194;BME280;8204;53.582;10.080;2022-12-29T12:56:47;98979.31;;;11.95;100.00
16194;BME280;8204;53.582;10.080;2022-12-29T12:59:37;98902.13;;;12.03;100.00
16194;BME280;8204;53.582;10.080;2022-12-29T13:02:17;98891.72;;;11.83;100.00
16194;BME280;8204;53.582;10.080;2022-12-29T13:07:59;98886.06;;;11.86;100.00
16194;BME280;8204;53.582;10.080;2022-12-29T13:10:41;98934.16;;;11.80;100.00
16194;BME280;8204;53.582;10.080;2022-12-29T13:13:31;98977.59;;;11.70;100.00
16194;BME280;8204;53.582;10.080;2022-12-29T13:16:09;99003.81;;;11.76;100.00
16194;BME280;8204;53.582;10.080;2022-12-29T13:18:48;99045.03;;;11.69;100.00
16194;BME280;8204;53.582;10.080;2022-12-29T13:21:30;99069.81;;;11.80;100.00
16194;BME280;8204;53.582;10.080;2022-12-29T13:24:05;99070.41;;;11.82;100.00
16194;BME280;8204;53.582;10.080;2022-12-29T13:26:44;99022.91;;;11.96;100.00
16194;BME280;8204;53.582;10.080;2022-12-29T13:29:19;98946.59;;;11.98;100.00
16194;BME280;8204;53.582;10.080;2022-12-29T13:31:56;98905.69;;;11.84;100.00
16194;BME280;8204;53.582;10.080;2022-12-29T13:34:38;98891.94;;;11.88;100.00